首页
METAR-TAF:

METAR-TAF

机场 :

喬治皇子城機場

乔治王子城, 不列颠哥伦比亚, 加拿大

纬度: 53-53N, 经度: 122-41W, 海拔: 691米

当前天气观测

该预报发布于1小时和0分钟前的01:00 UTC
风速7节,风向西
温度 10°C
湿度 37%
气压 1015 hPa
能見度: 14.5公里
散云层高于9600英尺

METAR: CYXS 080100Z AUTO 28007KT 9SM SCT096 10/M04 A2998 RMK SLP174

时间: 19:00 (02:00 UTC)

预报

该预报发布于1小时和22分钟前的00:38 UTC
预报有效从08日的 01点(UTC)到 08日的 13点(UTC)
风速10节,风向西
能見度: 10公里
散云层高于7000英尺
成为
从 08日的 06点(UTC)到 08日的 08点(UTC)
风速3节,风向多变

TAF: CYXS 080038Z 0801/0813 26010KT P6SM SCT070 BECMG 0806/0808 VRB03KT RMK FCST BASED ON AUTO OBS. NXT FCST BY 080700Z

超过4000个机场的气象观测和天气预报(METAR&TAF报告)。

可查询的气象台以黄色和红色小点在地图上表示。

将鼠标移到小点上方,可查看气象台名称。

然后点击查看天气观测和预报。

如需切换地图:点击带黑十字的绿色按钮放大地图;点击带横线的绿色按钮缩小地图;或者点击绿色箭头查看邻近地区的地图。


METAR-TAF: